createdAt,value
2018-08-28T00:00:09.725Z,15.50
2018-08-28T00:02:14.045Z,15.50
2018-08-28T00:04:18.274Z,15.50
2018-08-28T00:06:22.542Z,15.50
2018-08-28T00:08:26.758Z,15.50
2018-08-28T00:10:31.240Z,15.50
2018-08-28T00:12:35.478Z,15.50
2018-08-28T00:14:39.711Z,15.50
2018-08-28T00:16:43.935Z,15.40
2018-08-28T00:18:48.182Z,15.30
2018-08-28T00:20:52.906Z,15.40
2018-08-28T00:22:57.052Z,15.40
2018-08-28T00:25:01.245Z,15.40
2018-08-28T00:27:05.466Z,15.50
2018-08-28T00:29:09.642Z,15.50
2018-08-28T00:31:13.817Z,15.50
2018-08-28T00:33:17.992Z,15.50
2018-08-28T00:35:22.209Z,15.40
2018-08-28T00:37:26.433Z,15.50
2018-08-28T00:39:30.635Z,15.50
2018-08-28T00:41:34.894Z,15.60
2018-08-28T00:43:39.183Z,15.50
2018-08-28T00:45:43.350Z,15.60
2018-08-28T00:47:47.530Z,15.60
2018-08-28T00:49:51.733Z,15.60
2018-08-28T00:51:55.914Z,15.50
2018-08-28T00:54:00.097Z,15.50
2018-08-28T00:56:04.270Z,15.50
2018-08-28T00:58:08.511Z,15.40
2018-08-28T01:00:12.723Z,15.30
2018-08-28T01:02:16.874Z,15.50
2018-08-28T01:04:21.075Z,15.60
2018-08-28T01:06:25.214Z,15.40
2018-08-28T01:08:29.498Z,15.30
2018-08-28T01:10:33.952Z,15.40
2018-08-28T01:12:38.158Z,15.40
2018-08-28T01:14:42.481Z,15.40
2018-08-28T01:16:46.598Z,15.50
2018-08-28T01:18:50.863Z,15.50
2018-08-28T01:20:55.067Z,15.40
2018-08-28T01:22:59.346Z,15.40
2018-08-28T01:25:03.491Z,15.40
2018-08-28T01:27:07.213Z,15.50
2018-08-28T01:29:11.406Z,15.50
2018-08-28T01:31:15.634Z,15.50
2018-08-28T01:33:19.793Z,15.50
2018-08-28T01:35:24.368Z,15.40
2018-08-28T01:37:28.614Z,15.50
2018-08-28T01:39:33.078Z,15.60
2018-08-28T01:41:37.369Z,15.60
2018-08-28T01:43:41.526Z,15.60
2018-08-28T01:46:02.374Z,15.50
2018-08-28T01:48:06.950Z,15.50
2018-08-28T01:50:27.139Z,15.50
2018-08-28T01:52:31.766Z,15.40
2018-08-28T01:54:35.976Z,15.50
2018-08-28T01:56:40.480Z,15.50
2018-08-28T01:58:44.710Z,15.60
2018-08-28T02:00:48.903Z,15.60
2018-08-28T02:02:53.202Z,15.60
2018-08-28T02:04:57.517Z,15.60
2018-08-28T02:07:01.816Z,15.40
2018-08-28T02:09:07.823Z,15.50
2018-08-28T02:11:12.003Z,15.60
2018-08-28T02:13:16.679Z,15.50
2018-08-28T02:15:20.818Z,15.60
2018-08-28T02:17:25.054Z,15.60
2018-08-28T02:19:29.508Z,15.70
2018-08-28T02:21:33.786Z,15.60
2018-08-28T02:23:37.922Z,15.70
2018-08-28T02:25:42.139Z,15.60
2018-08-28T02:27:46.297Z,15.60
2018-08-28T02:29:50.595Z,15.60
2018-08-28T02:31:54.835Z,15.60
2018-08-28T02:33:59.044Z,15.60
2018-08-28T02:36:03.275Z,15.60
2018-08-28T02:38:07.544Z,15.40
2018-08-28T02:40:11.764Z,15.50
2018-08-28T02:42:15.955Z,15.50
2018-08-28T02:44:20.136Z,15.40
2018-08-28T02:46:24.332Z,15.40
2018-08-28T02:48:28.556Z,15.30
2018-08-28T02:50:32.822Z,15.20
2018-08-28T02:52:36.979Z,15.40
2018-08-28T02:54:41.165Z,15.30
2018-08-28T02:56:45.448Z,15.30
2018-08-28T02:58:49.675Z,15.40
2018-08-28T03:00:53.865Z,15.30
2018-08-28T03:02:58.073Z,15.30
2018-08-28T03:05:02.263Z,15.20
2018-08-28T03:07:06.465Z,15.40
2018-08-28T03:09:10.707Z,15.30
2018-08-28T03:11:14.936Z,15.10
2018-08-28T03:13:19.147Z,15.30
2018-08-28T03:15:23.344Z,15.40
2018-08-28T03:17:27.508Z,15.30
2018-08-28T03:19:31.751Z,15.30
2018-08-28T03:21:36.111Z,15.30
2018-08-28T03:23:40.660Z,15.30
2018-08-28T03:25:44.867Z,15.40
2018-08-28T03:27:49.102Z,15.40
2018-08-28T03:29:53.283Z,15.10
2018-08-28T03:31:57.464Z,15.30
2018-08-28T03:34:01.967Z,15.30
2018-08-28T03:36:06.576Z,15.30
2018-08-28T03:38:10.751Z,15.40
2018-08-28T03:40:14.874Z,15.40
2018-08-28T03:42:19.223Z,15.40
2018-08-28T03:44:23.393Z,15.40
2018-08-28T03:46:27.577Z,15.30
2018-08-28T03:48:31.766Z,15.30
2018-08-28T03:50:36.016Z,15.40
2018-08-28T03:52:40.212Z,15.40
2018-08-28T03:54:44.881Z,15.30
2018-08-28T03:56:49.018Z,15.30
2018-08-28T03:58:53.245Z,15.30
2018-08-28T04:00:57.550Z,15.30
2018-08-28T04:03:01.776Z,15.30
2018-08-28T04:05:06.979Z,15.40
2018-08-28T04:07:11.282Z,15.20
2018-08-28T04:09:15.524Z,15.30
2018-08-28T04:11:19.791Z,15.40
2018-08-28T04:13:24.041Z,15.30
2018-08-28T04:15:28.244Z,15.40
2018-08-28T04:17:36.530Z,15.40
2018-08-28T04:19:40.736Z,15.40
2018-08-28T04:21:44.964Z,15.40
2018-08-28T04:23:49.146Z,15.40
2018-08-28T04:25:53.418Z,15.40
2018-08-28T04:27:57.574Z,15.40
2018-08-28T04:30:01.816Z,15.40
2018-08-28T04:32:06.262Z,15.40
2018-08-28T04:34:10.512Z,15.40
2018-08-28T04:36:16.479Z,15.40
2018-08-28T04:38:21.036Z,15.40
2018-08-28T04:40:25.176Z,15.40
2018-08-28T04:42:29.545Z,15.40
2018-08-28T04:44:33.796Z,15.40
2018-08-28T04:46:37.985Z,15.40
2018-08-28T04:48:42.195Z,15.40
2018-08-28T04:50:46.471Z,15.40
2018-08-28T04:52:51.111Z,15.40
2018-08-28T04:54:55.908Z,15.40
2018-08-28T04:57:00.467Z,15.40
2018-08-28T04:59:04.999Z,15.40
2018-08-28T05:01:10.493Z,15.50
2018-08-28T05:03:15.252Z,15.40
2018-08-28T05:05:19.430Z,15.40
2018-08-28T05:07:23.711Z,15.50
2018-08-28T05:09:27.905Z,15.50
2018-08-28T05:11:32.111Z,15.50
2018-08-28T05:13:36.299Z,15.40
2018-08-28T05:15:40.561Z,15.40
2018-08-28T05:17:44.794Z,15.30
2018-08-28T05:19:49.035Z,15.20
2018-08-28T05:21:53.246Z,15.20
2018-08-28T05:23:57.458Z,15.30
2018-08-28T05:26:01.646Z,15.30
2018-08-28T05:28:06.093Z,15.30
2018-08-28T05:30:10.370Z,15.40
2018-08-28T05:32:14.544Z,15.50
2018-08-28T05:34:18.752Z,15.50
2018-08-28T05:36:22.943Z,15.50
2018-08-28T05:38:27.120Z,15.50
2018-08-28T05:40:31.370Z,15.50
2018-08-28T05:42:35.522Z,15.50
2018-08-28T05:44:39.768Z,15.60
2018-08-28T05:46:43.944Z,15.50
2018-08-28T05:48:48.225Z,15.50
2018-08-28T05:50:52.406Z,15.60
2018-08-28T05:52:56.590Z,15.60
2018-08-28T05:55:00.805Z,15.60
2018-08-28T05:57:05.018Z,15.70
2018-08-28T05:59:09.208Z,15.70
2018-08-28T06:01:13.426Z,15.50
2018-08-28T06:03:17.711Z,15.40
2018-08-28T06:05:21.810Z,15.50
2018-08-28T06:07:26.102Z,15.60
2018-08-28T06:09:30.247Z,15.50
2018-08-28T06:11:34.492Z,15.60
2018-08-28T06:13:38.738Z,15.60
2018-08-28T06:15:42.965Z,15.50
2018-08-28T06:17:47.175Z,15.50
2018-08-28T06:19:51.396Z,15.60
2018-08-28T06:21:55.579Z,15.50
2018-08-28T06:23:59.786Z,15.50
2018-08-28T06:26:03.957Z,15.60
2018-08-28T06:28:08.339Z,15.60
2018-08-28T06:30:12.620Z,15.70
2018-08-28T06:32:16.781Z,15.70
2018-08-28T06:34:21.066Z,15.80
2018-08-28T06:36:25.234Z,15.80
2018-08-28T06:38:29.471Z,15.80
2018-08-28T06:40:33.666Z,15.80
2018-08-28T06:42:37.830Z,15.90
2018-08-28T06:44:42.209Z,15.90
2018-08-28T06:46:46.382Z,15.80
2018-08-28T06:48:50.630Z,15.90
2018-08-28T06:50:54.771Z,16.00
2018-08-28T06:52:58.998Z,16.00
2018-08-28T06:55:03.302Z,16.00
2018-08-28T06:57:07.518Z,16.10
2018-08-28T06:59:11.774Z,16.10
2018-08-28T07:01:15.931Z,16.20
2018-08-28T07:03:20.154Z,16.20
2018-08-28T07:05:24.446Z,16.20
2018-08-28T07:07:28.645Z,16.20
2018-08-28T07:09:32.865Z,16.20
2018-08-28T07:11:37.244Z,16.30
2018-08-28T07:13:41.462Z,16.30
2018-08-28T07:15:45.624Z,16.30
2018-08-28T07:17:49.871Z,16.30
2018-08-28T07:19:54.119Z,16.40
2018-08-28T07:21:58.327Z,16.40
2018-08-28T07:24:02.537Z,16.40
2018-08-28T07:26:06.868Z,16.50
2018-08-28T07:28:11.043Z,16.50
2018-08-28T07:30:15.246Z,16.50
2018-08-28T07:32:19.446Z,16.60
2018-08-28T07:34:23.633Z,16.60
2018-08-28T07:36:27.959Z,16.60
2018-08-28T07:38:32.070Z,16.70
2018-08-28T07:40:36.413Z,16.70
2018-08-28T07:42:40.654Z,16.70
2018-08-28T07:44:44.823Z,16.70
2018-08-28T07:46:49.031Z,16.80
2018-08-28T07:48:53.278Z,16.80
2018-08-28T07:50:57.602Z,16.90
2018-08-28T07:53:01.798Z,16.90
2018-08-28T07:55:06.545Z,17.00
2018-08-28T07:57:10.805Z,17.00
2018-08-28T07:59:14.997Z,17.10
2018-08-28T08:01:19.136Z,17.10
2018-08-28T08:03:23.546Z,17.00
2018-08-28T08:05:27.874Z,17.20
2018-08-28T08:07:32.172Z,17.20
2018-08-28T08:09:36.353Z,17.20
2018-08-28T08:11:40.718Z,17.20
2018-08-28T08:13:44.943Z,17.30
2018-08-28T08:15:49.325Z,17.40
2018-08-28T08:17:53.533Z,17.30
2018-08-28T08:19:57.714Z,17.30
2018-08-28T08:22:01.857Z,17.40
2018-08-28T08:24:06.129Z,17.40
2018-08-28T08:26:10.384Z,17.50
2018-08-28T08:28:14.717Z,17.50
2018-08-28T08:30:18.962Z,17.50
2018-08-28T08:32:23.152Z,17.50
2018-08-28T08:34:27.347Z,17.60
2018-08-28T08:36:31.594Z,17.60
2018-08-28T08:38:35.703Z,17.60
2018-08-28T08:40:39.956Z,17.70
2018-08-28T08:42:44.154Z,17.60
2018-08-28T08:44:48.322Z,17.70
2018-08-28T08:46:52.562Z,17.70
2018-08-28T08:48:56.756Z,17.60
2018-08-28T08:51:01.032Z,17.60
2018-08-28T08:53:05.374Z,17.70
2018-08-28T08:55:09.743Z,17.80
2018-08-28T08:57:14.081Z,17.80
2018-08-28T08:59:18.267Z,17.80
2018-08-28T09:01:22.792Z,17.80
2018-08-28T09:03:27.000Z,17.80
2018-08-28T09:05:31.159Z,17.80
2018-08-28T09:07:35.335Z,17.90
2018-08-28T09:09:39.638Z,17.90
2018-08-28T09:11:43.861Z,17.90
2018-08-28T09:13:48.102Z,17.90
2018-08-28T09:15:52.268Z,18.00
2018-08-28T09:17:56.532Z,17.90
2018-08-28T09:20:00.736Z,18.00
2018-08-28T09:22:05.004Z,18.10
2018-08-28T09:24:09.263Z,18.00
2018-08-28T09:26:13.573Z,18.10
2018-08-28T09:28:17.735Z,18.10
2018-08-28T09:30:21.986Z,18.10
2018-08-28T09:32:26.408Z,18.20
2018-08-28T09:34:30.581Z,18.20
2018-08-28T09:36:34.859Z,18.30
2018-08-28T09:38:39.086Z,18.40
2018-08-28T09:40:43.227Z,18.40
2018-08-28T09:42:47.543Z,18.40
2018-08-28T09:44:51.719Z,18.40
2018-08-28T09:46:55.926Z,18.50
2018-08-28T09:49:00.141Z,18.60
2018-08-28T09:51:04.508Z,18.50
2018-08-28T09:53:08.726Z,18.60
2018-08-28T09:55:12.924Z,18.60
2018-08-28T09:57:17.123Z,18.60
2018-08-28T09:59:21.315Z,18.60
2018-08-28T10:01:30.734Z,18.50
2018-08-28T10:03:34.971Z,18.50
2018-08-28T10:05:39.163Z,18.50
2018-08-28T10:07:43.441Z,18.50
2018-08-28T10:09:47.653Z,18.60
2018-08-28T10:11:51.866Z,18.70
2018-08-28T10:13:56.038Z,18.70
2018-08-28T10:16:00.558Z,18.70
2018-08-28T10:18:04.722Z,18.60
2018-08-28T10:20:08.969Z,18.60
2018-08-28T10:22:13.203Z,18.70
2018-08-28T10:24:17.457Z,18.70
2018-08-28T10:26:21.639Z,18.70
2018-08-28T10:28:25.850Z,18.80
2018-08-28T10:30:30.176Z,18.80
2018-08-28T10:32:34.342Z,18.90
2018-08-28T10:34:38.544Z,18.90
2018-08-28T10:36:42.758Z,18.90
2018-08-28T10:38:47.000Z,19.00
2018-08-28T10:40:51.669Z,19.10
2018-08-28T10:42:55.899Z,19.10
2018-08-28T10:45:00.079Z,19.20
2018-08-28T10:47:04.380Z,19.20
2018-08-28T10:49:08.513Z,19.20
2018-08-28T10:51:12.656Z,19.30
2018-08-28T10:53:16.887Z,19.30
2018-08-28T10:55:21.056Z,19.40
2018-08-28T10:57:25.659Z,19.40
2018-08-28T10:59:29.853Z,19.40
2018-08-28T11:01:34.116Z,19.40
2018-08-28T11:03:38.323Z,19.50
2018-08-28T11:05:42.479Z,19.50
2018-08-28T11:07:46.734Z,19.50
2018-08-28T11:09:50.930Z,19.50
2018-08-28T11:11:55.110Z,19.40
2018-08-28T11:13:59.250Z,19.50
2018-08-28T11:16:03.550Z,19.50
2018-08-28T11:18:07.754Z,19.60
2018-08-28T11:20:11.952Z,19.50
2018-08-28T11:22:16.191Z,19.50
2018-08-28T11:24:20.475Z,19.50
2018-08-28T11:26:24.670Z,19.50
2018-08-28T11:28:28.951Z,19.50
2018-08-28T11:30:33.137Z,19.40
2018-08-28T11:32:37.358Z,19.50
2018-08-28T11:34:41.616Z,19.50
2018-08-28T11:36:45.826Z,19.60
2018-08-28T11:38:50.017Z,19.70
2018-08-28T11:40:54.310Z,19.90
2018-08-28T11:42:58.526Z,19.90
2018-08-28T11:45:02.862Z,20.10
2018-08-28T11:47:07.100Z,20.10
2018-08-28T11:49:11.299Z,20.10
2018-08-28T11:51:15.519Z,20.30
2018-08-28T11:53:19.850Z,20.20
2018-08-28T11:55:23.953Z,20.20
2018-08-28T11:57:28.212Z,20.30
2018-08-28T11:59:32.417Z,20.20
2018-08-28T12:01:36.639Z,20.40
2018-08-28T12:03:40.859Z,20.60
2018-08-28T12:05:45.025Z,20.60
2018-08-28T12:07:49.312Z,20.80
2018-08-28T12:09:53.578Z,20.50
2018-08-28T12:11:57.779Z,20.50
2018-08-28T12:14:02.036Z,20.30
2018-08-28T12:16:06.626Z,20.60
2018-08-28T12:18:10.858Z,20.90
2018-08-28T12:20:15.161Z,20.70
2018-08-28T12:22:25.847Z,20.40
2018-08-28T12:24:29.990Z,20.30
2018-08-28T12:26:34.339Z,20.30
2018-08-28T12:28:38.497Z,20.30
2018-08-28T12:30:42.694Z,20.30
2018-08-28T12:32:46.899Z,20.20
2018-08-28T12:34:51.254Z,20.10
2018-08-28T12:36:55.535Z,20.00
2018-08-28T12:38:59.525Z,20.00
2018-08-28T12:41:03.677Z,19.90
2018-08-28T12:43:07.934Z,19.80
2018-08-28T12:45:12.108Z,19.80
2018-08-28T12:47:16.318Z,19.70
2018-08-28T12:49:20.565Z,19.60
2018-08-28T12:51:24.852Z,19.60
2018-08-28T12:53:28.977Z,19.60
2018-08-28T12:55:33.181Z,19.70
2018-08-28T12:57:37.460Z,19.80
2018-08-28T12:59:41.649Z,19.80
2018-08-28T13:01:45.806Z,19.90
2018-08-28T13:03:50.057Z,19.90
2018-08-28T13:05:54.594Z,20.10
2018-08-28T13:07:58.797Z,20.00
2018-08-28T13:10:02.932Z,20.10
2018-08-28T13:12:07.122Z,20.20
2018-08-28T13:14:11.321Z,20.20
2018-08-28T13:16:15.528Z,20.10
2018-08-28T13:18:19.998Z,20.10
2018-08-28T13:20:24.267Z,20.10
2018-08-28T13:22:28.524Z,20.10
2018-08-28T13:24:32.820Z,20.10
2018-08-28T13:26:37.056Z,20.10
2018-08-28T13:28:41.306Z,20.10
2018-08-28T13:30:45.518Z,20.10
2018-08-28T13:32:49.696Z,20.10
2018-08-28T13:34:53.908Z,20.20
2018-08-28T13:36:58.092Z,20.20
2018-08-28T13:39:02.342Z,20.30
2018-08-28T13:41:06.583Z,20.60
2018-08-28T13:43:10.755Z,20.70
2018-08-28T13:45:15.082Z,20.60
2018-08-28T13:47:19.411Z,20.60
2018-08-28T13:49:23.485Z,20.60
2018-08-28T13:51:27.803Z,20.60
2018-08-28T13:53:32.283Z,20.60
2018-08-28T13:55:36.505Z,20.60
2018-08-28T13:57:40.683Z,20.50
2018-08-28T13:59:44.990Z,20.60
2018-08-28T14:01:49.133Z,20.60
2018-08-28T14:03:53.313Z,20.70
2018-08-28T14:05:57.433Z,20.70
2018-08-28T14:08:01.594Z,20.60
2018-08-28T14:10:06.921Z,20.60
2018-08-28T14:12:11.138Z,20.60
2018-08-28T14:14:15.420Z,20.60
2018-08-28T14:16:19.595Z,20.60
2018-08-28T14:18:23.816Z,20.60
2018-08-28T14:20:28.046Z,20.60
2018-08-28T14:22:32.350Z,20.60
2018-08-28T14:24:36.471Z,20.50
2018-08-28T14:26:40.806Z,20.60
2018-08-28T14:28:45.027Z,20.60
2018-08-28T14:30:49.210Z,20.70
2018-08-28T14:32:53.411Z,20.80
2018-08-28T14:34:57.717Z,20.70
2018-08-28T14:37:01.893Z,20.70
2018-08-28T14:39:07.359Z,20.60
2018-08-28T14:41:11.554Z,20.60
2018-08-28T14:43:15.981Z,20.50
2018-08-28T14:45:20.224Z,20.50
2018-08-28T14:47:24.417Z,20.50
2018-08-28T14:49:28.604Z,20.50
2018-08-28T14:51:32.835Z,20.50
2018-08-28T14:53:37.235Z,20.50
2018-08-28T14:55:41.490Z,20.40
2018-08-28T14:57:45.675Z,20.40
2018-08-28T14:59:49.826Z,20.40
2018-08-28T15:01:54.113Z,20.30
2018-08-28T15:03:58.371Z,20.30
2018-08-28T15:06:02.698Z,20.30
2018-08-28T15:08:06.921Z,20.30
2018-08-28T15:10:11.104Z,20.30
2018-08-28T15:12:15.311Z,20.30
2018-08-28T15:14:19.486Z,20.30
2018-08-28T15:16:23.762Z,20.30
2018-08-28T15:18:27.988Z,20.30
2018-08-28T15:20:32.169Z,20.30
2018-08-28T15:22:36.341Z,20.30
2018-08-28T15:24:40.578Z,20.30
2018-08-28T15:26:44.959Z,20.40
2018-08-28T15:28:49.123Z,20.30
2018-08-28T15:30:53.447Z,20.30
2018-08-28T15:32:57.735Z,20.30
2018-08-28T15:35:01.916Z,20.20
2018-08-28T15:37:06.150Z,20.20
2018-08-28T15:39:10.328Z,20.20
2018-08-28T15:41:14.827Z,20.20
2018-08-28T15:43:19.061Z,20.20
2018-08-28T15:45:23.270Z,20.20
2018-08-28T15:47:27.455Z,20.20
2018-08-28T15:49:31.632Z,20.10
2018-08-28T15:51:35.903Z,20.10
2018-08-28T15:53:40.067Z,20.10
2018-08-28T15:55:44.245Z,20.10
2018-08-28T15:57:48.474Z,20.10
2018-08-28T15:59:52.699Z,20.10
2018-08-28T16:01:56.883Z,20.10
2018-08-28T16:04:01.104Z,20.00
2018-08-28T16:06:05.340Z,20.00
2018-08-28T16:08:09.491Z,20.00
2018-08-28T16:10:13.695Z,20.00
2018-08-28T16:12:17.878Z,20.00
2018-08-28T16:14:22.080Z,20.00
2018-08-28T16:16:26.247Z,20.00
2018-08-28T16:18:30.918Z,19.90
2018-08-28T16:20:35.090Z,19.90
2018-08-28T16:22:44.121Z,19.90
2018-08-28T16:24:48.319Z,19.90
2018-08-28T16:26:53.210Z,19.80
2018-08-28T16:28:57.495Z,19.80
2018-08-28T16:31:02.099Z,19.80
2018-08-28T16:33:06.283Z,19.80
2018-08-28T16:35:10.551Z,19.80
2018-08-28T16:37:14.783Z,19.80
2018-08-28T16:39:18.962Z,19.70
2018-08-28T16:41:23.158Z,19.70
2018-08-28T16:43:27.450Z,19.70
2018-08-28T16:45:31.627Z,19.70
2018-08-28T16:47:35.818Z,19.60
2018-08-28T16:49:40.106Z,19.70
2018-08-28T16:51:44.380Z,19.60
2018-08-28T16:53:48.594Z,19.70
2018-08-28T16:55:52.800Z,19.70
2018-08-28T16:57:57.010Z,19.60
2018-08-28T17:00:01.222Z,19.60
2018-08-28T17:02:05.466Z,19.60
2018-08-28T17:04:09.655Z,19.60
2018-08-28T17:06:13.821Z,19.60
2018-08-28T17:08:18.094Z,19.50
2018-08-28T17:10:22.349Z,19.50
2018-08-28T17:12:26.651Z,19.50
2018-08-28T17:14:30.814Z,19.50
2018-08-28T17:16:34.980Z,19.40
2018-08-28T17:18:39.166Z,19.40
2018-08-28T17:20:43.365Z,19.40
2018-08-28T17:22:49.012Z,19.40
2018-08-28T17:24:53.220Z,19.40
2018-08-28T17:26:57.433Z,19.40
2018-08-28T17:29:01.644Z,19.30
2018-08-28T17:31:05.913Z,19.30
2018-08-28T17:33:10.141Z,19.30
2018-08-28T17:35:14.331Z,19.40
2018-08-28T17:37:18.610Z,19.30
2018-08-28T17:39:22.832Z,19.30
2018-08-28T17:41:26.955Z,19.30
2018-08-28T17:43:31.201Z,19.20
2018-08-28T17:45:35.712Z,19.20
2018-08-28T17:47:39.905Z,19.20
2018-08-28T17:49:44.118Z,19.10
2018-08-28T17:51:48.637Z,19.10
2018-08-28T17:53:52.797Z,19.10
2018-08-28T17:55:57.154Z,19.00
2018-08-28T17:58:01.405Z,19.10
2018-08-28T18:00:07.159Z,19.00
2018-08-28T18:02:11.366Z,19.00
2018-08-28T18:04:15.506Z,18.90
2018-08-28T18:06:19.758Z,18.90
2018-08-28T18:08:24.015Z,18.90
2018-08-28T18:10:28.510Z,18.90
2018-08-28T18:12:32.648Z,18.90
2018-08-28T18:14:36.774Z,18.90
2018-08-28T18:16:40.984Z,18.90
2018-08-28T18:18:45.175Z,18.80
2018-08-28T18:20:49.387Z,18.80
2018-08-28T18:22:53.683Z,18.70
2018-08-28T18:24:57.855Z,18.80
2018-08-28T18:27:02.083Z,18.70
2018-08-28T18:29:06.335Z,18.70
2018-08-28T18:31:10.561Z,18.70
2018-08-28T18:33:14.753Z,18.70
2018-08-28T18:35:18.947Z,18.60
2018-08-28T18:37:23.185Z,18.60
2018-08-28T18:39:27.424Z,18.60
2018-08-28T18:41:31.663Z,18.60
2018-08-28T18:43:37.663Z,18.60
2018-08-28T18:45:42.543Z,18.50
2018-08-28T18:47:47.033Z,18.40
2018-08-28T18:49:51.416Z,18.40
2018-08-28T18:51:55.655Z,18.40
2018-08-28T18:53:59.907Z,18.30
2018-08-28T18:56:04.210Z,18.20
2018-08-28T18:58:09.056Z,18.20
2018-08-28T19:00:13.814Z,18.10
2018-08-28T19:02:18.349Z,18.10
2018-08-28T19:04:22.735Z,18.20
2018-08-28T19:06:27.355Z,18.10
2018-08-28T19:08:31.947Z,18.10
2018-08-28T19:10:36.657Z,18.10
2018-08-28T19:12:41.042Z,18.10
2018-08-28T19:14:45.769Z,18.00
2018-08-28T19:16:50.591Z,18.00
2018-08-28T19:18:55.439Z,18.00
2018-08-28T19:21:00.504Z,18.10
2018-08-28T19:23:05.199Z,18.10
2018-08-28T19:25:10.464Z,18.10
2018-08-28T19:27:15.157Z,18.10
2018-08-28T19:29:20.091Z,18.10
2018-08-28T19:31:25.293Z,18.10
2018-08-28T19:33:29.785Z,18.10
2018-08-28T19:35:34.295Z,18.10
2018-08-28T19:37:38.851Z,18.10
2018-08-28T19:39:43.088Z,18.00
2018-08-28T19:41:47.362Z,18.10
2018-08-28T19:43:51.551Z,17.90
2018-08-28T19:45:55.818Z,17.80
2018-08-28T19:48:00.110Z,17.80
2018-08-28T19:50:04.411Z,17.90
2018-08-28T19:52:08.973Z,17.80
2018-08-28T19:54:13.172Z,17.90
2018-08-28T19:56:17.396Z,17.80
2018-08-28T19:58:21.647Z,17.80
2018-08-28T20:00:25.967Z,17.80
2018-08-28T20:02:30.200Z,17.70
2018-08-28T20:04:34.445Z,17.60
2018-08-28T20:06:38.659Z,17.60
2018-08-28T20:08:42.859Z,17.60
2018-08-28T20:10:47.035Z,17.70
2018-08-28T20:12:51.244Z,17.70
2018-08-28T20:14:55.528Z,17.50
2018-08-28T20:16:59.748Z,17.50
2018-08-28T20:19:03.998Z,17.40
2018-08-28T20:21:08.241Z,17.40
2018-08-28T20:23:12.859Z,17.40
2018-08-28T20:25:16.966Z,17.20
2018-08-28T20:27:21.183Z,17.30
2018-08-28T20:29:34.482Z,17.30
2018-08-28T20:31:39.309Z,17.30
2018-08-28T20:33:44.667Z,17.10
2018-08-28T20:35:49.848Z,17.10
2018-08-28T20:37:54.778Z,17.10
2018-08-28T20:40:00.096Z,17.20
2018-08-28T20:42:05.617Z,17.10
2018-08-28T20:44:10.555Z,17.10
2018-08-28T20:46:15.968Z,17.20
2018-08-28T20:48:21.091Z,17.10
2018-08-28T20:50:25.318Z,17.10
2018-08-28T20:52:29.531Z,17.10
2018-08-28T20:54:33.697Z,17.00
2018-08-28T20:56:37.884Z,17.20
2018-08-28T20:58:43.821Z,17.20
2018-08-28T21:00:48.902Z,17.20
2018-08-28T21:02:53.586Z,17.20
2018-08-28T21:04:58.159Z,17.20
2018-08-28T21:07:04.812Z,17.30
2018-08-28T21:09:10.151Z,17.20
2018-08-28T21:11:15.537Z,17.30
2018-08-28T21:13:20.671Z,17.30
2018-08-28T21:15:24.860Z,17.30
2018-08-28T21:17:30.308Z,17.30
2018-08-28T21:19:35.212Z,17.20
2018-08-28T21:21:39.707Z,17.20
2018-08-28T21:23:44.007Z,17.20
2018-08-28T21:25:49.205Z,17.10
2018-08-28T21:27:54.425Z,17.20
2018-08-28T21:29:59.030Z,17.10
2018-08-28T21:32:04.109Z,17.00
2018-08-28T21:34:08.897Z,17.10
2018-08-28T21:36:13.741Z,17.10
2018-08-28T21:38:18.841Z,17.10
2018-08-28T21:40:23.313Z,17.10
2018-08-28T21:42:27.536Z,17.10
2018-08-28T21:44:32.159Z,17.10
2018-08-28T21:46:36.618Z,17.00
2018-08-28T21:48:40.915Z,16.80
2018-08-28T21:50:45.144Z,16.70
2018-08-28T21:52:49.756Z,16.70
2018-08-28T21:54:54.044Z,16.90
2018-08-28T21:57:00.538Z,16.90
2018-08-28T21:59:05.131Z,16.90
2018-08-28T22:01:10.932Z,17.00
2018-08-28T22:03:15.522Z,16.90
2018-08-28T22:05:23.858Z,16.90
2018-08-28T22:07:33.652Z,16.90
2018-08-28T22:09:38.460Z,16.70
2018-08-28T22:11:43.665Z,16.80
2018-08-28T22:13:48.334Z,16.70
2018-08-28T22:15:53.369Z,16.80
2018-08-28T22:17:58.688Z,16.80
2018-08-28T22:20:02.876Z,16.80
2018-08-28T22:22:07.169Z,16.70
2018-08-28T22:24:11.333Z,16.70
2018-08-28T22:26:15.552Z,16.60
2018-08-28T22:28:19.783Z,16.70
2018-08-28T22:30:24.106Z,16.60
2018-08-28T22:32:35.987Z,16.50
2018-08-28T22:34:40.963Z,16.50
2018-08-28T22:36:45.761Z,16.50
2018-08-28T22:38:50.781Z,16.50
2018-08-28T22:40:56.747Z,16.30
2018-08-28T22:43:01.620Z,16.30
2018-08-28T22:45:07.458Z,16.30
2018-08-28T22:47:11.839Z,16.20
2018-08-28T22:49:16.540Z,16.20
2018-08-28T22:51:20.998Z,16.10
2018-08-28T22:53:25.489Z,16.10
2018-08-28T22:55:30.073Z,16.10
2018-08-28T22:57:34.801Z,16.10
2018-08-28T22:59:39.269Z,16.20
2018-08-28T23:01:43.453Z,16.30
2018-08-28T23:03:47.720Z,16.10
2018-08-28T23:05:52.229Z,16.20
2018-08-28T23:07:57.404Z,16.30
2018-08-28T23:10:03.204Z,16.20
2018-08-28T23:12:07.992Z,16.10
2018-08-28T23:14:12.573Z,16.00
2018-08-28T23:16:16.867Z,16.20
2018-08-28T23:18:31.971Z,16.20
2018-08-28T23:20:36.961Z,16.20
2018-08-28T23:22:42.383Z,16.20
2018-08-28T23:24:46.943Z,16.10
2018-08-28T23:26:51.554Z,16.30
2018-08-28T23:28:57.595Z,16.20
2018-08-28T23:31:02.640Z,16.20
2018-08-28T23:33:07.337Z,16.20
2018-08-28T23:35:11.967Z,16.20
2018-08-28T23:37:16.821Z,16.20
2018-08-28T23:39:21.588Z,16.30
2018-08-28T23:41:27.221Z,16.30
2018-08-28T23:43:31.789Z,16.30
2018-08-28T23:45:36.120Z,16.20
2018-08-28T23:47:40.763Z,16.20
2018-08-28T23:49:45.414Z,16.20
2018-08-28T23:51:50.118Z,16.30
2018-08-28T23:53:54.391Z,16.20
2018-08-28T23:55:59.195Z,16.20
2018-08-28T23:58:05.355Z,16.10
